Time;durP1;ratioP1;P1;durP2;ratioP2;P2;SDS_P1;SDS_P2;PMS_P1;PMS_P2;Temp;Humidity;BMP_temperature;BMP_pressure;BME280_temperature;BME280_humidity;BME280_pressure;Samples;Min_cycle;Max_cycle;Signal;HPM_P1;HPM_P2
2023/11/03 00:00:07;;;;;;;3.40;0.90;;;;;;;;;;702863;28;1007;-63
2023/11/03 00:00:28;;;;;;;4.00;1.05;;;;;;;;;;703680;28;915;-64
2023/11/03 00:00:48;;;;;;;4.53;1.10;;;;;;;;;;701205;28;4374;-63
2023/11/03 00:01:08;;;;;;;4.38;1.67;;;;;;;;;;703236;27;883;-62
2023/11/03 00:01:28;;;;;;;4.40;1.50;;;;;;;;;;703711;28;1183;-64
2023/11/03 00:01:49;;;;;;;4.40;1.20;;;;;;;;;;702037;28;1758;-63
2023/11/03 00:02:09;;;;;;;4.67;1.10;;;;;;;;;;702922;28;1984;-63
2023/11/03 00:02:30;;;;;;;4.32;1.20;;;;;;;;;;703208;28;904;-65
2023/11/03 00:02:50;;;;;;;6.78;1.40;;;;;;;;;;701257;28;1855;-63
2023/11/03 00:03:10;;;;;;;4.50;1.00;;;;;;;;;;702651;28;1032;-63
2023/11/03 00:03:32;;;;;;;5.75;1.00;;;;;;;;;;705900;27;862;-63
2023/11/03 00:03:53;;;;;;;5.22;1.10;;;;;;;;;;704842;27;4221;-63
2023/11/03 00:04:14;;;;;;;6.40;1.20;;;;;;;;;;705087;28;812;-62
2023/11/03 00:04:36;;;;;;;4.47;1.20;;;;;;;;;;704268;27;1817;-65
2023/11/03 00:05:04;;;;;;;3.97;1.33;;;;;;;;;;705673;27;836;-64
2023/11/03 00:05:25;;;;;;;2.83;1.23;;;;;;;;;;705889;27;852;-63
2023/11/03 00:05:46;;;;;;;3.92;1.30;;;;;;;;;;705208;27;1464;-63
2023/11/03 00:06:06;;;;;;;4.80;1.30;;;;;;;;;;707338;27;3136;-65
2023/11/03 00:06:26;;;;;;;4.72;1.23;;;;;;;;;;707257;27;810;-63
2023/11/03 00:06:49;;;;;;;3.97;1.00;;;;;;;;;;705268;27;4401;-65
2023/11/03 00:07:10;;;;;;;3.45;1.02;;;;;;;;;;707000;27;923;-60
2023/11/03 00:07:32;;;;;;;4.60;1.20;;;;;;;;;;707650;27;864;-64
2023/11/03 00:07:53;;;;;;;6.95;1.33;;;;;;;;;;706755;27;896;-64
2023/11/03 00:08:16;;;;;;;5.45;1.17;;;;;;;;;;706673;27;1333;-63
2023/11/03 00:08:37;;;;;;;6.20;1.55;;;;;;;;;;704959;27;2233;-64
2023/11/03 00:08:58;;;;;;;5.10;1.15;;;;;;;;;;706123;27;805;-63
2023/11/03 00:09:23;;;;;;;5.15;1.45;;;;;;;;;;706712;27;797;-66
2023/11/03 00:09:44;;;;;;;5.65;1.50;;;;;;;;;;705078;27;1464;-66
2023/11/03 00:10:05;;;;;;;5.40;1.13;;;;;;;;;;706521;27;4683;-67
2023/11/03 00:10:27;;;;;;;5.68;1.15;;;;;;;;;;706754;27;1049;-66
2023/11/03 00:10:47;;;;;;;5.38;1.08;;;;;;;;;;706133;27;1092;-65
2023/11/03 00:11:07;;;;;;;6.47;1.20;;;;;;;;;;705813;27;974;-66
2023/11/03 00:11:28;;;;;;;4.70;1.00;;;;;;;;;;706529;27;797;-65
2023/11/03 00:11:48;;;;;;;2.60;1.00;;;;;;;;;;704924;27;2387;-61
2023/11/03 00:12:09;;;;;;;3.35;0.98;;;;;;;;;;707140;27;1024;-62
2023/11/03 00:12:29;;;;;;;4.00;1.00;;;;;;;;;;703774;28;1548;-64
2023/11/03 00:12:49;;;;;;;3.87;1.10;;;;;;;;;;702022;28;4506;-62
2023/11/03 00:13:10;;;;;;;4.97;1.20;;;;;;;;;;702078;28;1359;-65
2023/11/03 00:13:31;;;;;;;4.67;1.10;;;;;;;;;;701972;28;924;-64
2023/11/03 00:13:52;;;;;;;5.38;1.08;;;;;;;;;;699711;28;1481;-65
2023/11/03 00:14:13;;;;;;;5.63;1.17;;;;;;;;;;701552;28;851;-64
2023/11/03 00:14:33;;;;;;;6.53;1.20;;;;;;;;;;697990;28;2698;-64
2023/11/03 00:14:54;;;;;;;4.40;1.13;;;;;;;;;;699618;28;809;-64
2023/11/03 00:15:14;;;;;;;4.95;1.08;;;;;;;;;;700962;28;968;-65
2023/11/03 00:15:36;;;;;;;3.93;0.90;;;;;;;;;;702352;28;1144;-63
2023/11/03 00:15:56;;;;;;;3.60;0.90;;;;;;;;;;704000;28;4457;-64
2023/11/03 00:16:16;;;;;;;3.00;0.90;;;;;;;;;;702695;28;848;-64
2023/11/03 00:16:37;;;;;;;4.38;1.10;;;;;;;;;;704555;27;1508;-66
2023/11/03 00:16:57;;;;;;;4.87;1.20;;;;;;;;;;705681;27;943;-65
2023/11/03 00:17:18;;;;;;;3.15;1.00;;;;;;;;;;704478;28;1593;-65
2023/11/03 00:17:38;;;;;;;3.50;1.10;;;;;;;;;;704185;28;1761;-65
2023/11/03 00:17:59;;;;;;;4.13;1.10;;;;;;;;;;703624;28;959;-64
2023/11/03 00:18:19;;;;;;;4.30;1.15;;;;;;;;;;704289;28;761;-64
2023/11/03 00:18:40;;;;;;;5.05;1.27;;;;;;;;;;701903;28;1929;-64
2023/11/03 00:19:04;;;;;;;5.00;1.30;;;;;;;;;;703496;28;4401;-65
2023/11/03 00:19:25;;;;;;;3.95;1.10;;;;;;;;;;704275;28;904;-64
2023/11/03 00:19:46;;;;;;;3.70;0.82;;;;;;;;;;704206;27;1804;-65
2023/11/03 00:20:07;;;;;;;3.45;0.90;;;;;;;;;;704973;27;1124;-63
2023/11/03 00:20:28;;;;;;;4.70;1.00;;;;;;;;;;705756;27;1293;-64
2023/11/03 00:20:48;;;;;;;5.13;1.17;;;;;;;;;;705441;27;2441;-64
2023/11/03 00:21:09;;;;;;;5.30;1.10;;;;;;;;;;706088;27;729;-63
2023/11/03 00:21:32;;;;;;;4.82;1.10;;;;;;;;;;705550;27;966;-65
2023/11/03 00:21:52;;;;;;;5.30;1.35;;;;;;;;;;703484;27;4411;-64
2023/11/03 00:22:13;;;;;;;4.05;0.95;;;;;;;;;;705224;27;1918;-64
2023/11/03 00:22:33;;;;;;;3.92;1.10;;;;;;;;;;703317;27;1488;-67
2023/11/03 00:22:54;;;;;;;2.67;0.90;;;;;;;;;;706187;27;842;-64
2023/11/03 00:23:14;;;;;;;4.95;1.00;;;;;;;;;;706029;27;1176;-64
2023/11/03 00:23:34;;;;;;;4.87;1.03;;;;;;;;;;704957;27;2460;-63
2023/11/03 00:23:55;;;;;;;4.30;1.17;;;;;;;;;;707209;27;1025;-63
2023/11/03 00:24:16;;;;;;;4.83;1.30;;;;;;;;;;705833;27;908;-65
2023/11/03 00:24:37;;;;;;;3.92;1.10;;;;;;;;;;703799;27;2339;-65
2023/11/03 00:24:57;;;;;;;4.90;1.10;;;;;;;;;;705309;27;4465;-66
2023/11/03 00:25:17;;;;;;;6.25;1.30;;;;;;;;;;702686;28;888;-65
2023/11/03 00:25:38;;;;;;;5.13;1.27;;;;;;;;;;701357;28;1867;-64
2023/11/03 00:25:58;;;;;;;4.03;1.10;;;;;;;;;;702317;28;963;-63
2023/11/03 00:26:18;;;;;;;4.75;1.20;;;;;;;;;;702660;28;848;-65
2023/11/03 00:26:41;;;;;;;3.83;0.90;;;;;;;;;;702322;28;2433;-64
2023/11/03 00:27:01;;;;;;;3.80;1.17;;;;;;;;;;703629;28;788;-64
2023/11/03 00:27:23;;;;;;;3.83;1.10;;;;;;;;;;706743;27;1073;-64
2023/11/03 00:27:46;;;;;;;4.70;1.10;;;;;;;;;;698903;28;1735;-65
2023/11/03 00:28:06;;;;;;;4.53;1.27;;;;;;;;;;699554;28;4896;-66
2023/11/03 00:28:27;;;;;;;4.97;1.10;;;;;;;;;;697295;28;1307;-65
2023/11/03 00:28:49;;;;;;;6.47;1.15;;;;;;;;;;696343;28;1692;-64
2023/11/03 00:29:10;;;;;;;4.45;1.13;;;;;;;;;;698835;28;1034;-64
2023/11/03 00:29:31;;;;;;;4.55;1.10;;;;;;;;;;697356;28;1573;-64
2023/11/03 00:29:52;;;;;;;4.60;1.30;;;;;;;;;;698904;28;2204;-65
2023/11/03 00:30:12;;;;;;;5.57;1.33;;;;;;;;;;699619;28;967;-64
2023/11/03 00:30:35;;;;;;;5.37;1.30;;;;;;;;;;701467;28;775;-64
2023/11/03 00:30:55;;;;;;;4.32;1.00;;;;;;;;;;699503;28;4411;-65
2023/11/03 00:31:16;;;;;;;5.03;1.00;;;;;;;;;;700462;28;856;-65
2023/11/03 00:31:37;;;;;;;3.92;0.85;;;;;;;;;;696774;28;1791;-63
2023/11/03 00:31:57;;;;;;;3.93;0.90;;;;;;;;;;698798;28;1012;-66
2023/11/03 00:32:18;;;;;;;5.15;1.02;;;;;;;;;;698859;28;864;-62
2023/11/03 00:32:38;;;;;;;4.53;1.10;;;;;;;;;;693560;28;2303;-64
2023/11/03 00:32:59;;;;;;;4.00;1.10;;;;;;;;;;695757;28;1695;-66
2023/11/03 00:33:20;;;;;;;4.97;1.13;;;;;;;;;;696299;28;770;-65
2023/11/03 00:33:40;;;;;;;5.30;1.13;;;;;;;;;;696863;28;1905;-64
2023/11/03 00:34:00;;;;;;;5.07;1.13;;;;;;;;;;699932;28;4297;-65
2023/11/03 00:34:20;;;;;;;5.10;1.10;;;;;;;;;;699914;28;903;-64
2023/11/03 00:34:41;;;;;;;6.03;1.10;;;;;;;;;;702710;28;1472;-64
2023/11/03 00:35:01;;;;;;;6.03;1.00;;;;;;;;;;705016;27;848;-64
2023/11/03 00:35:22;;;;;;;4.60;1.03;;;;;;;;;;701657;28;1416;-65
2023/11/03 00:35:42;;;;;;;5.27;1.27;;;;;;;;;;700975;28;1704;-64
2023/11/03 00:36:05;;;;;;;4.73;1.10;;;;;;;;;;701627;28;1317;-64
2023/11/03 00:36:25;;;;;;;3.83;1.05;;;;;;;;;;698957;28;896;-64
2023/11/03 00:36:47;;;;;;;4.85;1.10;;;;;;;;;;696645;28;4402;-65
2023/11/03 00:37:07;;;;;;;6.32;1.33;;;;;;;;;;698379;28;1014;-63
2023/11/03 00:37:27;;;;;;;5.93;1.30;;;;;;;;;;699937;28;1320;-65
2023/11/03 00:37:49;;;;;;;4.22;1.17;;;;;;;;;;699301;28;1533;-64
2023/11/03 00:38:09;;;;;;;4.65;1.13;;;;;;;;;;701139;28;1346;-64
2023/11/03 00:38:30;;;;;;;5.57;1.17;;;;;;;;;;703583;28;883;-64
2023/11/03 00:38:50;;;;;;;6.03;1.30;;;;;;;;;;701312;28;5437;-66
2023/11/03 00:39:12;;;;;;;3.20;1.00;;;;;;;;;;703442;28;1226;-65
2023/11/03 00:39:33;;;;;;;4.10;1.00;;;;;;;;;;699367;28;1444;-66
2023/11/03 00:39:53;;;;;;;4.97;0.90;;;;;;;;;;698602;28;5097;-64
2023/11/03 00:40:14;;;;;;;4.22;1.10;;;;;;;;;;699798;28;749;-63
2023/11/03 00:40:34;;;;;;;3.60;1.00;;;;;;;;;;699300;28;2504;-63
2023/11/03 00:40:55;;;;;;;3.43;0.87;;;;;;;;;;700680;28;1672;-64
2023/11/03 00:41:16;;;;;;;3.53;1.00;;;;;;;;;;701646;28;895;-64
2023/11/03 00:41:36;;;;;;;2.88;0.82;;;;;;;;;;702823;28;1775;-62
2023/11/03 00:41:57;;;;;;;3.50;1.00;;;;;;;;;;701293;28;1120;-64
2023/11/03 00:42:17;;;;;;;5.00;1.08;;;;;;;;;;701374;28;1918;-64
2023/11/03 00:42:37;;;;;;;4.80;0.97;;;;;;;;;;697635;28;2270;-63
2023/11/03 00:43:00;;;;;;;3.57;1.00;;;;;;;;;;699240;28;4302;-64
2023/11/03 00:43:20;;;;;;;3.75;1.00;;;;;;;;;;699434;28;884;-64
2023/11/03 00:43:41;;;;;;;4.87;1.20;;;;;;;;;;698921;28;982;-67
2023/11/03 00:44:02;;;;;;;3.72;1.10;;;;;;;;;;702599;28;1373;-65
2023/11/03 00:44:25;;;;;;;1.93;0.70;;;;;;;;;;704135;28;1136;-63
2023/11/03 00:44:45;;;;;;;2.42;0.70;;;;;;;;;;702867;28;1734;-64
2023/11/03 00:45:06;;;;;;;3.10;0.80;;;;;;;;;;704107;28;771;-64
2023/11/03 00:45:26;;;;;;;4.93;1.17;;;;;;;;;;704097;28;834;-63
2023/11/03 00:45:47;;;;;;;3.47;1.10;;;;;;;;;;699770;28;4382;-64
2023/11/03 00:46:10;;;;;;;3.67;1.00;;;;;;;;;;701258;28;1074;-64
2023/11/03 00:46:30;;;;;;;4.73;1.00;;;;;;;;;;700328;28;1227;-64
2023/11/03 00:46:51;;;;;;;4.55;1.00;;;;;;;;;;699681;28;1442;-64
2023/11/03 00:47:11;;;;;;;4.47;1.15;;;;;;;;;;697217;28;1470;-64
2023/11/03 00:47:31;;;;;;;3.83;0.93;;;;;;;;;;696806;28;948;-64
2023/11/03 00:47:54;;;;;;;3.83;0.90;;;;;;;;;;699294;28;1577;-63
2023/11/03 00:48:14;;;;;;;3.25;1.00;;;;;;;;;;698481;28;1450;-60
2023/11/03 00:48:34;;;;;;;3.73;1.13;;;;;;;;;;700897;28;942;-64
2023/11/03 00:48:55;;;;;;;3.00;1.03;;;;;;;;;;697067;28;4491;-64
2023/11/03 00:49:15;;;;;;;2.92;0.98;;;;;;;;;;699804;28;808;-64
2023/11/03 00:49:37;;;;;;;4.53;0.90;;;;;;;;;;698083;28;1851;-62
2023/11/03 00:49:59;;;;;;;4.80;1.00;;;;;;;;;;701138;28;969;-63
2023/11/03 00:50:19;;;;;;;3.47;0.88;;;;;;;;;;697668;28;958;-64
2023/11/03 00:50:39;;;;;;;4.63;1.23;;;;;;;;;;696731;28;1784;-64
2023/11/03 00:51:03;;;;;;;5.80;1.50;;;;;;;;;;696012;28;1369;-63
2023/11/03 00:51:23;;;;;;;4.47;1.13;;;;;;;;;;694540;28;947;-63
2023/11/03 00:51:44;;;;;;;4.35;1.05;;;;;;;;;;694509;28;1585;-63
2023/11/03 00:52:07;;;;;;;2.43;0.80;;;;;;;;;;695934;28;4633;-64
2023/11/03 00:52:27;;;;;;;3.13;0.80;;;;;;;;;;698471;28;823;-62
2023/11/03 00:52:48;;;;;;;4.30;1.07;;;;;;;;;;698807;28;1169;-63
2023/11/03 00:53:09;;;;;;;4.72;1.25;;;;;;;;;;701212;28;919;-63
2023/11/03 00:53:29;;;;;;;3.77;1.07;;;;;;;;;;696333;28;1594;-63
2023/11/03 00:53:50;;;;;;;4.63;1.00;;;;;;;;;;696565;28;2638;-63
2023/11/03 00:54:10;;;;;;;4.40;1.00;;;;;;;;;;700365;28;933;-63
2023/11/03 00:54:30;;;;;;;4.03;1.00;;;;;;;;;;699779;28;950;-63
2023/11/03 00:54:51;;;;;;;2.83;0.90;;;;;;;;;;697813;28;4361;-62
2023/11/03 00:55:11;;;;;;;3.58;0.93;;;;;;;;;;704039;27;1203;-65
2023/11/03 00:55:32;;;;;;;5.60;1.17;;;;;;;;;;705531;27;792;-62
2023/11/03 00:55:52;;;;;;;4.87;1.20;;;;;;;;;;700847;28;2313;-63
2023/11/03 00:56:13;;;;;;;3.40;1.00;;;;;;;;;;703563;28;951;-62
2023/11/03 00:56:39;;;;;;;3.97;1.10;;;;;;;;;;699409;28;1577;-63
2023/11/03 00:57:00;;;;;;;4.05;0.90;;;;;;;;;;699209;28;889;-63
2023/11/03 00:57:20;;;;;;;3.30;0.82;;;;;;;;;;700790;28;946;-62
2023/11/03 00:57:42;;;;;;;4.10;0.70;;;;;;;;;;698975;28;1780;-63
2023/11/03 00:58:03;;;;;;;4.95;0.90;;;;;;;;;;703421;28;4599;-62
2023/11/03 00:58:24;;;;;;;3.67;1.00;;;;;;;;;;701878;28;1502;-63
2023/11/03 00:58:45;;;;;;;3.63;1.10;;;;;;;;;;701659;28;1017;-62
2023/11/03 00:59:07;;;;;;;4.47;1.05;;;;;;;;;;700443;28;1394;-64
2023/11/03 00:59:28;;;;;;;5.15;1.10;;;;;;;;;;697524;28;1235;-62
2023/11/03 00:59:49;;;;;;;4.70;1.00;;;;;;;;;;695576;28;1702;-63
2023/11/03 01:00:12;;;;;;;2.83;0.90;;;;;;;;;;696678;28;1098;-62
2023/11/03 01:00:36;;;;;;;2.78;0.98;;;;;;;;;;700376;28;836;-63
2023/11/03 01:00:56;;;;;;;3.38;0.85;;;;;;;;;;697635;28;4639;-63
2023/11/03 01:01:17;;;;;;;3.13;0.83;;;;;;;;;;699323;28;880;-62
2023/11/03 01:01:38;;;;;;;3.63;0.90;;;;;;;;;;699288;28;2227;-63
2023/11/03 01:01:59;;;;;;;3.15;0.90;;;;;;;;;;700554;28;1196;-64
2023/11/03 01:02:19;;;;;;;2.67;0.80;;;;;;;;;;702858;28;2960;-66
2023/11/03 01:02:41;;;;;;;2.77;1.10;;;;;;;;;;698809;28;1946;-61
2023/11/03 01:03:01;;;;;;;3.03;1.30;;;;;;;;;;702147;28;1068;-65
2023/11/03 01:03:23;;;;;;;3.00;0.80;;;;;;;;;;701637;28;954;-60
2023/11/03 01:03:44;;;;;;;3.45;0.70;;;;;;;;;;701902;28;1738;-63
2023/11/03 01:04:05;;;;;;;3.15;0.80;;;;;;;;;;697791;28;5084;-63
2023/11/03 01:04:25;;;;;;;2.53;0.80;;;;;;;;;;698440;28;892;-63
2023/11/03 01:04:45;;;;;;;3.03;0.90;;;;;;;;;;696499;28;2420;-62
2023/11/03 01:05:06;;;;;;;3.25;0.90;;;;;;;;;;698656;28;1026;-61
2023/11/03 01:05:26;;;;;;;3.90;0.90;;;;;;;;;;698682;28;1551;-61
2023/11/03 01:05:47;;;;;;;3.05;0.80;;;;;;;;;;694881;28;1419;-63
2023/11/03 01:06:13;;;;;;;2.83;0.80;;;;;;;;;;698832;28;911;-62
2023/11/03 01:06:33;;;;;;;2.45;0.90;;;;;;;;;;698305;28;1104;-63
2023/11/03 01:06:55;;;;;;;1.90;0.80;;;;;;;;;;695879;28;4358;-62
2023/11/03 01:07:15;;;;;;;2.15;0.80;;;;;;;;;;697897;28;1045;-63
2023/11/03 01:07:35;;;;;;;3.70;0.93;;;;;;;;;;700230;28;1507;-65
2023/11/03 01:07:57;;;;;;;4.32;0.90;;;;;;;;;;701121;28;1533;-62
2023/11/03 01:08:17;;;;;;;3.10;0.80;;;;;;;;;;702770;28;902;-64
2023/11/03 01:08:38;;;;;;;4.43;1.00;;;;;;;;;;701447;28;1005;-64
2023/11/03 01:08:58;;;;;;;3.47;0.80;;;;;;;;;;702846;28;888;-62
2023/11/03 01:09:19;;;;;;;2.93;0.70;;;;;;;;;;699255;28;943;-63
2023/11/03 01:09:39;;;;;;;2.45;0.70;;;;;;;;;;699558;28;2271;-62
2023/11/03 01:10:01;;;;;;;2.10;0.80;;;;;;;;;;698493;28;4492;-63
2023/11/03 01:10:22;;;;;;;2.33;0.80;;;;;;;;;;695119;28;1441;-64
2023/11/03 01:10:42;;;;;;;3.50;0.80;;;;;;;;;;694258;28;1858;-61
2023/11/03 01:11:03;;;;;;;3.42;0.80;;;;;;;;;;696774;28;997;-62
2023/11/03 01:11:23;;;;;;;2.77;0.97;;;;;;;;;;698525;28;838;-62
2023/11/03 01:11:44;;;;;;;2.58;0.90;;;;;;;;;;697276;28;2697;-63
2023/11/03 01:12:04;;;;;;;1.83;0.70;;;;;;;;;;697990;28;1274;-62
2023/11/03 01:12:25;;;;;;;1.90;0.70;;;;;;;;;;699932;28;1928;-63
2023/11/03 01:12:45;;;;;;;4.13;1.00;;;;;;;;;;694983;28;4362;-62
2023/11/03 01:13:10;;;;;;;3.43;1.20;;;;;;;;;;694662;28;1271;-67
2023/11/03 01:13:30;;;;;;;3.33;0.90;;;;;;;;;;694647;28;1558;-61
2023/11/03 01:13:50;;;;;;;3.30;0.80;;;;;;;;;;695031;28;1747;-61
2023/11/03 01:14:11;;;;;;;2.58;0.80;;;;;;;;;;697759;28;959;-62
2023/11/03 01:14:32;;;;;;;3.07;0.80;;;;;;;;;;700383;28;714;-63
2023/11/03 01:14:55;;;;;;;4.85;0.90;;;;;;;;;;701814;28;1748;-62
2023/11/03 01:15:19;;;;;;;3.67;0.85;;;;;;;;;;703000;28;955;-63
2023/11/03 01:15:39;;;;;;;3.78;0.95;;;;;;;;;;699144;28;1765;-62
2023/11/03 01:16:00;;;;;;;3.70;0.90;;;;;;;;;;701201;28;4354;-62
2023/11/03 01:16:22;;;;;;;3.58;0.88;;;;;;;;;;698233;28;3891;-64
2023/11/03 01:16:42;;;;;;;3.17;1.08;;;;;;;;;;695431;28;2123;-62
2023/11/03 01:17:05;;;;;;;4.43;1.00;;;;;;;;;;698133;28;1210;-62
2023/11/03 01:17:28;;;;;;;3.65;0.88;;;;;;;;;;695929;28;1346;-63
2023/11/03 01:17:50;;;;;;;3.10;0.80;;;;;;;;;;697287;28;1830;-63
2023/11/03 01:18:10;;;;;;;3.80;1.10;;;;;;;;;;701707;28;951;-62
2023/11/03 01:18:31;;;;;;;4.30;1.00;;;;;;;;;;702946;28;1289;-63
2023/11/03 01:18:51;;;;;;;4.90;0.90;;;;;;;;;;698716;28;4368;-62
2023/11/03 01:19:12;;;;;;;4.07;1.00;;;;;;;;;;703198;28;974;-63
2023/11/03 01:19:32;;;;;;;4.10;0.87;;;;;;;;;;703504;28;967;-61
2023/11/03 01:19:52;;;;;;;3.47;0.90;;;;;;;;;;699138;28;1728;-62
2023/11/03 01:20:19;;;;;;;3.30;0.82;;;;;;;;;;700619;28;798;-62
2023/11/03 01:20:39;;;;;;;4.05;0.90;;;;;;;;;;698622;28;1425;-62
2023/11/03 01:20:59;;;;;;;4.33;0.90;;;;;;;;;;699881;28;1011;-62
2023/11/03 01:21:22;;;;;;;3.10;0.80;;;;;;;;;;701619;28;884;-62
2023/11/03 01:21:43;;;;;;;3.25;0.98;;;;;;;;;;698936;28;2301;-64
2023/11/03 01:22:04;;;;;;;2.80;0.85;;;;;;;;;;701401;28;4321;-62
2023/11/03 01:22:24;;;;;;;2.83;0.80;;;;;;;;;;702717;28;1969;-63
2023/11/03 01:22:48;;;;;;;3.65;1.00;;;;;;;;;;698063;28;1768;-64
2023/11/03 01:23:08;;;;;;;1.83;0.80;;;;;;;;;;698917;28;1177;-63
2023/11/03 01:23:29;;;;;;;2.20;0.80;;;;;;;;;;699214;28;1194;-64
2023/11/03 01:23:49;;;;;;;2.47;0.80;;;;;;;;;;700073;28;1248;-62
2023/11/03 01:24:10;;;;;;;3.00;1.00;;;;;;;;;;701367;28;883;-62
2023/11/03 01:24:31;;;;;;;4.20;0.80;;;;;;;;;;701023;28;777;-63
2023/11/03 01:24:52;;;;;;;3.47;0.80;;;;;;;;;;702471;28;4373;-64
2023/11/03 01:25:12;;;;;;;4.35;1.00;;;;;;;;;;703418;28;828;-63
2023/11/03 01:25:33;;;;;;;3.78;1.10;;;;;;;;;;704188;28;1351;-60
2023/11/03 01:25:54;;;;;;;4.63;1.00;;;;;;;;;;702748;28;1754;-63
2023/11/03 01:26:16;;;;;;;3.55;0.80;;;;;;;;;;701997;28;952;-63
2023/11/03 01:26:39;;;;;;;4.20;1.15;;;;;;;;;;702129;28;912;-63
2023/11/03 01:26:59;;;;;;;3.45;1.00;;;;;;;;;;701897;28;935;-64
2023/11/03 01:27:22;;;;;;;2.95;0.90;;;;;;;;;;702562;28;982;-63
2023/11/03 01:27:43;;;;;;;3.33;0.88;;;;;;;;;;701336;28;2231;-64
2023/11/03 01:28:05;;;;;;;3.22;0.95;;;;;;;;;;700759;28;4361;-64
2023/11/03 01:28:26;;;;;;;3.55;0.80;;;;;;;;;;701123;28;871;-63
2023/11/03 01:28:47;;;;;;;3.67;0.80;;;;;;;;;;697141;28;2402;-63
2023/11/03 01:29:07;;;;;;;3.25;0.80;;;;;;;;;;698235;28;979;-63
2023/11/03 01:29:28;;;;;;;2.40;1.00;;;;;;;;;;698625;28;1191;-64
2023/11/03 01:29:51;;;;;;;2.90;0.85;;;;;;;;;;699889;28;1552;-63
2023/11/03 01:30:12;;;;;;;3.30;0.80;;;;;;;;;;701560;28;959;-64
2023/11/03 01:30:32;;;;;;;3.03;0.70;;;;;;;;;;704389;27;824;-67
2023/11/03 01:30:53;;;;;;;3.73;1.00;;;;;;;;;;701100;28;4346;-64
2023/11/03 01:31:13;;;;;;;4.37;1.00;;;;;;;;;;703247;28;923;-64
2023/11/03 01:31:33;;;;;;;3.40;0.83;;;;;;;;;;702969;28;916;-63
2023/11/03 01:31:54;;;;;;;2.75;0.70;;;;;;;;;;701330;28;1851;-64
2023/11/03 01:32:15;;;;;;;4.17;1.10;;;;;;;;;;702520;28;789;-63
2023/11/03 01:32:36;;;;;;;3.55;1.00;;;;;;;;;;702253;27;1117;-63
2023/11/03 01:32:57;;;;;;;3.15;0.90;;;;;;;;;;702336;28;2516;-64
2023/11/03 01:33:17;;;;;;;3.23;0.90;;;;;;;;;;699586;28;860;-63
2023/11/03 01:33:40;;;;;;;3.08;0.93;;;;;;;;;;698165;28;1986;-64
2023/11/03 01:34:01;;;;;;;2.63;0.80;;;;;;;;;;699030;28;4218;-65
2023/11/03 01:34:21;;;;;;;3.40;0.83;;;;;;;;;;698368;28;1267;-64
2023/11/03 01:34:41;;;;;;;3.67;0.90;;;;;;;;;;696763;28;2415;-63
2023/11/03 01:35:02;;;;;;;2.77;0.83;;;;;;;;;;698460;28;931;-64
2023/11/03 01:35:25;;;;;;;3.00;0.80;;;;;;;;;;701426;28;1640;-63
2023/11/03 01:35:46;;;;;;;3.40;0.95;;;;;;;;;;698254;28;1735;-63
2023/11/03 01:36:08;;;;;;;3.83;0.93;;;;;;;;;;698662;28;983;-63
2023/11/03 01:36:28;;;;;;;2.67;0.80;;;;;;;;;;697622;28;872;-63
2023/11/03 01:36:48;;;;;;;3.63;0.90;;;;;;;;;;691202;28;4428;-64
2023/11/03 01:37:09;;;;;;;2.93;0.80;;;;;;;;;;693664;28;864;-62
2023/11/03 01:37:29;;;;;;;3.83;0.95;;;;;;;;;;695200;28;1317;-64
2023/11/03 01:37:51;;;;;;;3.13;0.87;;;;;;;;;;688814;28;1792;-64
2023/11/03 01:38:12;;;;;;;3.28;0.80;;;;;;;;;;690368;28;845;-64
2023/11/03 01:38:34;;;;;;;2.77;0.80;;;;;;;;;;691970;28;1125;-63
2023/11/03 01:38:54;;;;;;;3.42;0.80;;;;;;;;;;688600;28;5437;-64
2023/11/03 01:39:15;;;;;;;3.50;0.70;;;;;;;;;;692964;28;1551;-63
2023/11/03 01:39:35;;;;;;;1.52;0.70;;;;;;;;;;696410;28;833;-63
2023/11/03 01:39:56;;;;;;;2.03;0.77;;;;;;;;;;696290;28;4641;-64
2023/11/03 01:40:16;;;;;;;3.15;0.90;;;;;;;;;;698424;28;1194;-63
2023/11/03 01:40:37;;;;;;;3.23;0.80;;;;;;;;;;698126;28;1577;-63
2023/11/03 01:41:00;;;;;;;4.05;0.90;;;;;;;;;;693683;28;2141;-64
2023/11/03 01:41:20;;;;;;;2.95;0.75;;;;;;;;;;692766;28;1409;-64
2023/11/03 01:41:40;;;;;;;2.33;0.70;;;;;;;;;;691593;28;1728;-63
2023/11/03 01:42:02;;;;;;;4.23;0.90;;;;;;;;;;692933;28;944;-64
2023/11/03 01:42:22;;;;;;;3.80;1.00;;;;;;;;;;696552;28;1914;-64
2023/11/03 01:42:43;;;;;;;2.83;0.80;;;;;;;;;;696636;28;2429;-64
2023/11/03 01:43:03;;;;;;;3.10;0.80;;;;;;;;;;696878;28;5229;-63
2023/11/03 01:43:24;;;;;;;2.83;0.90;;;;;;;;;;699996;28;1188;-63
2023/11/03 01:44:19;;;;;;;2.60;0.85;;;;;;;;;;700505;28;1697;-64
2023/11/03 01:44:40;;;;;;;3.10;1.00;;;;;;;;;;692639;28;2390;-65
2023/11/03 01:45:01;;;;;;;2.80;0.87;;;;;;;;;;691345;28;1400;-64
2023/11/03 01:45:21;;;;;;;2.75;0.80;;;;;;;;;;691688;28;1024;-64
2023/11/03 01:45:41;;;;;;;2.80;0.90;;;;;;;;;;690275;28;2215;-64
2023/11/03 01:46:02;;;;;;;2.63;0.90;;;;;;;;;;691431;28;5183;-63
2023/11/03 01:46:23;;;;;;;3.40;0.80;;;;;;;;;;692327;28;817;-64
2023/11/03 01:46:43;;;;;;;2.83;0.73;;;;;;;;;;694600;28;1877;-64
2023/11/03 01:47:04;;;;;;;4.40;0.93;;;;;;;;;;696402;28;1446;-63
2023/11/03 01:47:24;;;;;;;2.87;0.73;;;;;;;;;;694697;28;1374;-65
2023/11/03 01:47:44;;;;;;;3.70;0.83;;;;;;;;;;695405;28;2470;-64
2023/11/03 01:48:05;;;;;;;3.83;0.85;;;;;;;;;;696135;28;857;-64
2023/11/03 01:48:28;;;;;;;3.88;0.88;;;;;;;;;;695904;28;1261;-65
2023/11/03 01:48:48;;;;;;;3.97;1.00;;;;;;;;;;694700;28;4494;-64
2023/11/03 01:49:09;;;;;;;3.22;1.00;;;;;;;;;;697435;28;971;-64
2023/11/03 01:49:29;;;;;;;3.45;1.00;;;;;;;;;;699601;28;987;-63
2023/11/03 01:49:50;;;;;;;4.40;1.00;;;;;;;;;;702164;28;1822;-63
2023/11/03 01:50:10;;;;;;;3.47;0.80;;;;;;;;;;701803;28;840;-64
2023/11/03 01:50:30;;;;;;;2.40;0.80;;;;;;;;;;699306;28;1381;-64
2023/11/03 01:50:51;;;;;;;2.47;0.90;;;;;;;;;;700830;28;1878;-63
2023/11/03 01:51:11;;;;;;;3.10;0.80;;;;;;;;;;701706;28;1354;-63
2023/11/03 01:51:35;;;;;;;3.80;0.90;;;;;;;;;;699006;28;1300;-62
2023/11/03 01:51:55;;;;;;;3.15;0.80;;;;;;;;;;695061;28;4469;-63
2023/11/03 01:52:15;;;;;;;3.27;0.90;;;;;;;;;;696584;28;793;-63
2023/11/03 01:52:38;;;;;;;4.15;0.90;;;;;;;;;;696062;28;1392;-64
2023/11/03 01:52:59;;;;;;;4.32;0.90;;;;;;;;;;696878;28;1822;-64
2023/11/03 01:53:20;;;;;;;3.28;0.90;;;;;;;;;;697577;28;987;-64
2023/11/03 01:53:41;;;;;;;3.23;0.80;;;;;;;;;;695907;28;2329;-64
2023/11/03 01:54:02;;;;;;;2.25;0.70;;;;;;;;;;697332;28;932;-63
2023/11/03 01:54:23;;;;;;;3.58;0.82;;;;;;;;;;695832;28;1373;-64
2023/11/03 01:54:43;;;;;;;4.10;1.13;;;;;;;;;;696829;28;2350;-64
2023/11/03 01:55:03;;;;;;;3.88;1.15;;;;;;;;;;693555;28;4348;-63
2023/11/03 01:55:24;;;;;;;3.83;0.93;;;;;;;;;;695584;28;997;-63
2023/11/03 01:55:45;;;;;;;3.33;0.82;;;;;;;;;;696793;28;2116;-65
2023/11/03 01:56:05;;;;;;;2.63;0.73;;;;;;;;;;700539;28;785;-63
2023/11/03 01:56:26;;;;;;;3.33;0.90;;;;;;;;;;697804;28;1256;-63
2023/11/03 01:56:47;;;;;;;3.65;1.02;;;;;;;;;;697196;28;2344;-64
2023/11/03 01:57:07;;;;;;;2.58;1.30;;;;;;;;;;700174;28;1458;-62
2023/11/03 01:57:28;;;;;;;3.50;1.17;;;;;;;;;;697085;28;1372;-62
2023/11/03 01:57:49;;;;;;;4.32;0.90;;;;;;;;;;695173;28;4273;-63
2023/11/03 01:58:10;;;;;;;3.10;0.88;;;;;;;;;;694239;28;1139;-63
2023/11/03 01:58:30;;;;;;;3.72;0.70;;;;;;;;;;694741;28;1350;-63
2023/11/03 01:58:51;;;;;;;4.03;0.80;;;;;;;;;;694266;28;1808;-63
2023/11/03 01:59:13;;;;;;;2.78;0.70;;;;;;;;;;698496;28;1214;-62
2023/11/03 01:59:33;;;;;;;2.72;0.80;;;;;;;;;;696380;28;1351;-62
2023/11/03 01:59:54;;;;;;;1.93;0.70;;;;;;;;;;694387;28;1691;-63
2023/11/03 02:00:15;;;;;;;2.00;0.70;;;;;;;;;;698131;28;869;-63
2023/11/03 02:00:35;;;;;;;2.40;0.80;;;;;;;;;;695380;28;824;-64
2023/11/03 02:00:55;;;;;;;2.58;0.73;;;;;;;;;;692357;28;4421;-63
2023/11/03 02:01:16;;;;;;;3.07;0.90;;;;;;;;;;695887;28;985;-62
2023/11/03 02:01:37;;;;;;;2.80;0.82;;;;;;;;;;695896;28;1035;-63
2023/11/03 02:01:58;;;;;;;1.45;0.73;;;;;;;;;;697760;28;1991;-63
2023/11/03 02:02:18;;;;;;;2.67;0.80;;;;;;;;;;703079;28;1967;-65
2023/11/03 02:02:39;;;;;;;3.03;0.90;;;;;;;;;;701905;28;1255;-64
2023/11/03 02:03:00;;;;;;;3.22;0.90;;;;;;;;;;700398;28;1222;-64
2023/11/03 02:03:20;;;;;;;2.87;0.73;;;;;;;;;;700416;28;1417;-63
2023/11/03 02:03:40;;;;;;;3.87;1.10;;;;;;;;;;700101;28;1747;-63
2023/11/03 02:04:01;;;;;;;2.40;0.77;;;;;;;;;;701419;28;4476;-63
2023/11/03 02:04:21;;;;;;;1.92;0.70;;;;;;;;;;702352;28;769;-60
2023/11/03 02:04:42;;;;;;;4.15;0.80;;;;;;;;;;701499;27;1872;-63
2023/11/03 02:05:02;;;;;;;4.17;0.80;;;;;;;;;;701501;28;1163;-64
2023/11/03 02:05:23;;;;;;;2.63;0.80;;;;;;;;;;699359;28;2046;-63
2023/11/03 02:05:44;;;;;;;2.90;0.90;;;;;;;;;;698287;28;1952;-63
2023/11/03 02:06:04;;;;;;;2.80;0.73;;;;;;;;;;698932;28;1359;-63
2023/11/03 02:06:25;;;;;;;3.20;0.90;;;;;;;;;;699471;28;821;-62
2023/11/03 02:06:46;;;;;;;3.05;1.10;;;;;;;;;;698959;28;4239;-64
2023/11/03 02:07:06;;;;;;;1.90;0.90;;;;;;;;;;702530;28;1730;-63
2023/11/03 02:07:26;;;;;;;2.53;0.70;;;;;;;;;;699714;28;1491;-63
2023/11/03 02:07:48;;;;;;;1.63;0.63;;;;;;;;;;697037;28;1699;-63
2023/11/03 02:08:08;;;;;;;1.73;0.60;;;;;;;;;;699107;28;1592;-64
2023/11/03 02:08:29;;;;;;;3.47;0.77;;;;;;;;;;699261;28;1544;-64
2023/11/03 02:08:49;;;;;;;3.70;0.87;;;;;;;;;;694500;28;1926;-63
2023/11/03 02:09:09;;;;;;;3.57;0.90;;;;;;;;;;695848;28;1188;-64
2023/11/03 02:09:30;;;;;;;3.27;0.93;;;;;;;;;;696053;28;832;-65
2023/11/03 02:09:50;;;;;;;2.17;0.70;;;;;;;;;;696552;28;4351;-64
2023/11/03 02:10:11;;;;;;;2.03;0.70;;;;;;;;;;701158;28;1261;-64
2023/11/03 02:10:31;;;;;;;2.72;0.90;;;;;;;;;;704181;28;777;-64